• Join FlightAware (Why Join?)
  • Login
  • US Flag 
07:37PM EDT


 

Airport Tracker/Info


-or-


 

Live Flight TrackerFlight Track Log ✈ LXJ342 ✈ 03-Jul-2013 ✈ KTEB - KSFO

Flight Track Log - Related Links

Times and Time Zones

All times are in EDT time to prevent confusion due to time zone crossing. See the LXJ342 flight status page for this flight to view local times or setup timezone preferences in your user account.

Time Position Orientation Groundspeed Altitude Reporting Facility
EDT Latitude Longitude Course Direction KTS MPH feet Rate Location/Type
11:27AM 40.8333 -74.1000 270° West 184 212 1,300  Level New York TRACON
11:28AM 40.8333 -74.1667 270° West 195 224 2,600 1,920 Climbing New York TRACON
11:29AM 40.8333 -74.2500 270° West 218 251 5,200 2,700 Climbing New York TRACON
11:30AM 40.8500 -74.3333 285° West 259 298 8,100 3,000 Climbing New York TRACON
11:31AM 40.8500 -74.4333 270° West 276 318 11,300 2,580 Climbing New York TRACON
11:33AM 40.8711 -74.6403 278° West 315 362 15,600 2,220 Climbing New York Center
11:34AM 40.8739 -74.7475 272° West 332 382 17,600 1,860 Climbing New York Center
11:35AM 40.8569 -74.8728 260° West 332 382 19,300 1,800 Climbing New York Center
11:36AM 40.8403 -74.9950 260° West 342 394 21,200 1,680 Climbing New York Center
11:37AM 40.8231 -75.1256 260° West 353 406 22,800 1,440 Climbing New York Center
11:38AM 40.8056 -75.2589 260° West 359 413 24,200 1,260 Climbing New York Center
11:39AM 40.7856 -75.3972 259° West 378 435 25,400 1,380 Climbing New York Center
11:40AM 40.7656 -75.5358 259° West 384 442 27,000 1,320 Climbing New York Center
11:41AM 40.7475 -75.6714 260° West 391 450 28,100 900 Climbing New York Center
11:42AM 40.7242 -75.8286 259° West 391 450 28,800 840 Climbing New York Center
11:43AM 40.7058 -75.9614 260° West 391 450 29,800 1,020 Climbing New York Center
11:44AM 40.6822 -76.1183 259° West 410 472 30,900 840 Climbing New York Center
11:45AM 40.6669 -76.2678 262° West 410 472 31,600 780 Climbing New York Center
11:46AM 40.6889 -76.4228 281° West 410 472 32,500 720 Climbing New York Center
11:47AM 40.7128 -76.5725 282° West 415 478 33,100 540 Climbing New York Center
11:48AM 40.7364 -76.7281 281° West 415 478 33,600 900 Climbing New York Center
11:49AM 40.7600 -76.8808 282° West 420 483 34,900 1,080 Climbing New York Center
11:50AM 40.7794 -77.0278 280° West 420 483 35,800 540 Climbing New York Center
11:51AM 40.8006 -77.1750 281° West 415 478 36,000 60 Climbing New York Center
11:52AM 40.8236 -77.3281 281° West 415 478 36,000  Level New York Center
11:53AM 40.8450 -77.4647 282° West 415 478 36,000  Level New York Center
11:55AM 40.8906 -77.8144 280° West 432 497 36,000  Level Cleveland Center
11:56AM 40.9131 -77.9728 281° West 442 509 36,000  Level Cleveland Center
11:57AM 40.9331 -78.1342 279° West 447 514 36,000  Level Cleveland Center
11:58AM 40.9528 -78.2764 280° West 452 520 36,000  Level Cleveland Center
11:59AM 40.9725 -78.4325 280° West 447 514 36,000  Level Cleveland Center
12:00PM 40.9922 -78.5914 279° West 447 514 36,000  Level Cleveland Center
12:01PM 41.0114 -78.7533 279° West 447 514 36,000  Level Cleveland Center
12:02PM 41.0283 -78.9069 278° West 447 514 36,000  Level Cleveland Center
12:03PM 41.0453 -79.0689 278° West 442 509 36,000  Level Cleveland Center
12:04PM 41.0661 -79.2281 280° West 442 509 36,000  Level Cleveland Center
12:05PM 41.0844 -79.3847 279° West 442 509 36,000  Level Cleveland Center
12:06PM 41.1006 -79.5469 278° West 442 509 36,000  Level Cleveland Center
12:07PM 41.1208 -79.7067 280° West 442 509 36,000 420 Level Cleveland Center
12:08PM 41.1344 -79.8828 276° West 442 509 36,900 900 Climbing Cleveland Center
12:09PM 41.1519 -80.0150 280° West 437 503 37,800 540 Climbing Cleveland Center
12:10PM 41.1669 -80.1611 278° West 418 481 38,000 60 Climbing Cleveland Center
12:11PM 41.1822 -80.3128 278° West 418 481 38,000  Level Cleveland Center
12:12PM 41.1992 -80.4839 278° West 418 481 38,000  Level Cleveland Center
12:13PM 41.2136 -80.6411 277° West 424 488 38,000  Level Cleveland Center
12:14PM 41.2303 -80.7958 278° West 429 494 38,000  Level Cleveland Center
12:15PM 41.2444 -80.9531 277° West 429 494 38,000  Level Cleveland Center
12:16PM 41.2606 -81.1053 278° West 423 487 38,000  Level Cleveland Center
12:17PM 41.2742 -81.2572 277° West 423 487 38,000  Level Cleveland Center
12:18PM 41.2881 -81.3928 278° West 423 487 38,000  Level Cleveland Center
12:19PM 41.3053 -81.5617 278° West 423 487 38,000  Level Cleveland Center
12:20PM 41.3206 -81.7139 278° West 423 487 38,000  Level Cleveland Center
12:21PM 41.3336 -81.8661 277° West 423 487 38,000  Level Cleveland Center
12:22PM 41.3483 -82.0214 277° West 423 487 38,000  Level Cleveland Center
12:23PM 41.3589 -82.1767 275° West 428 493 38,000  Level Cleveland Center
12:24PM 41.3672 -82.3289 274° West 423 487 38,000  Level Cleveland Center
12:25PM 41.3750 -82.4814 274° West 423 487 38,000  Level Cleveland Center
12:26PM 41.3831 -82.6228 274° West 423 487 38,000  Level Cleveland Center
12:27PM 41.3908 -82.7725 274° West 423 487 38,000  Level Cleveland Center
12:28PM 41.4003 -82.9278 275° West 423 487 38,000  Level Cleveland Center
12:29PM 41.4094 -83.0833 275° West 423 487 38,000  Level Cleveland Center
12:30PM 41.4164 -83.2386 273° West 423 487 38,000  Level Cleveland Center
12:31PM 41.4231 -83.3883 273° West 423 487 38,000  Level Cleveland Center
12:32PM 41.4356 -83.5608 276° West 423 487 38,000  Level Cleveland Center
12:33PM 41.4419 -83.7133 273° West 423 487 38,000  Level Cleveland Center
12:35PM 41.4544 -84.0233 273° West 418 481 38,000  Level Chicago Center
12:36PM 41.4619 -84.1781 274° West 420 483 38,000  Level Chicago Center
12:37PM 41.4678 -84.3328 273° West 420 483 38,000  Level Chicago Center
12:38PM 41.4750 -84.4853 274° West 416 479 38,000  Level Chicago Center
12:39PM 41.4806 -84.6406 273° West 420 483 38,000  Level Chicago Center
12:40PM 41.4858 -84.7931 273° West 415 478 38,000  Level Chicago Center
12:41PM 41.4928 -84.9778 273° West 415 478 38,000  Level Chicago Center
12:42PM 41.4975 -85.1289 272° West 410 472 38,000  Level Chicago Center
12:43PM 41.5017 -85.2819 272° West 409 471 38,000  Level Chicago Center
12:44PM 41.5031 -85.4375 271° West 410 472 38,000  Level Chicago Center
12:45PM 41.5122 -85.5903 275° West 401 461 38,000  Level Chicago Center
12:46PM 41.5158 -85.7433 272° West 409 471 38,000  Level Chicago Center
12:47PM 41.5206 -85.8944 272° West 411 473 38,000  Level Chicago Center
12:48PM 41.5247 -86.0442 272° West 407 468 38,000  Level Chicago Center
12:49PM 41.5281 -86.2261 271° West 411 473 38,000  Level Chicago Center
12:50PM 41.5300 -86.3764 271° West 409 471 38,000  Level Chicago Center
12:51PM 41.5331 -86.5272 272° West 410 472 38,000  Level Chicago Center
12:52PM 41.5342 -86.6794 271° West 411 473 38,000  Level Chicago Center
12:53PM 41.5356 -86.8267 271° West 399 459 38,000  Level Chicago Center
12:54PM 41.5383 -86.9783 271° West 407 468 38,000  Level Chicago Center
12:56PM 41.5406 -87.1611 271° West 413 475 38,000  Level Chicago Center
12:57PM 41.5411 -87.3136 270° West 415 478 38,000  Level Chicago Center
12:58PM 41.5439 -87.4650 271° West 411 473 38,000  Level Chicago Center
12:59PM 41.5450 -87.6183 271° West 416 479 38,000  Level Chicago Center
01:00PM 41.5456 -87.7739 270° West 423 487 38,000  Level Chicago Center
01:01PM 41.5472 -87.9614 271° West 429 494 38,000  Level Chicago Center
01:02PM 41.5472 -88.1194 270° West 440 506 38,000  Level Chicago Center
01:03PM 41.5475 -88.2811 270° West 447 514 38,000  Level Chicago Center
01:04PM 41.5475 -88.4781 270° West 448 516 38,000  Level Chicago Center
01:05PM 41.5481 -88.6436 270° West 449 517 38,000  Level Chicago Center
01:06PM 41.5481 -88.8117 270° West 454 522 38,000  Level Chicago Center
01:07PM 41.5478 -88.9783 270° West 454 522 38,000  Level Chicago Center
01:08PM 41.5483 -89.1475 270° West 458 527 38,000  Level Chicago Center
01:09PM 41.5489 -89.3508 270° West 460 529 38,000  Level Chicago Center
01:10PM 41.5494 -89.5192 270° West 457 526 38,000  Level Chicago Center
01:11PM 41.5478 -89.6908 269° West 455 524 38,000  Level Chicago Center
01:12PM 41.5469 -89.8608 270° West 459 528 38,000  Level Chicago Center
01:13PM 41.5458 -90.0306 270° West 459 528 38,000  Level Chicago Center
01:14PM 41.5447 -90.2017 270° West 463 533 38,000  Level Chicago Center
01:15PM 41.5419 -90.4122 269° West 473 544 38,000  Level Chicago Center
01:16PM 41.5386 -90.5822 269° West 465 535 38,000  Level Chicago Center
01:17PM 41.5358 -90.7517 269° West 462 532 38,000  Level Chicago Center
01:18PM 41.5336 -90.9228 269° West 462 532 38,000  Level Chicago Center
01:19PM 41.5306 -91.0944 269° West 466 536 38,000  Level Chicago Center
01:20PM 41.5264 -91.3006 269° West 466 536 38,000  Level Chicago Center
01:21PM 41.5228 -91.4750 268° West 471 542 38,000  Level Chicago Center
01:22PM 41.5175 -91.6486 268° West 469 540 38,000  Level Chicago Center
01:23PM 41.5006 -91.8206 263° West 471 542 38,000  Level Chicago Center
01:24PM 41.4844 -91.9914 263° West 469 540 38,000  Level Chicago Center
01:26PM 41.4678 -92.1608 263° West 466 536 38,000  Level Chicago Center
01:27PM 41.4497 -92.3650 263° West 466 536 38,000  Level Chicago Center
01:28PM 41.4553 -92.5286 273° West 474 545 38,000  Level Chicago Center
01:29PM 41.4456 -92.7347 266° West 468 539 38,000  Level Minneapolis Center
01:30PM 41.4261 -92.9064 261° West 471 542 38,000  Level Minneapolis Center
01:31PM 41.4025 -93.1133 261° West 474 545 38,000  Level Minneapolis Center
01:32PM 41.3817 -93.2853 261° West 476 548 38,000  Level Minneapolis Center
01:33PM 41.3617 -93.4564 261° West 475 547 38,000  Level Minneapolis Center
01:34PM 41.3417 -93.6286 261° West 476 548 38,000  Level Minneapolis Center
01:35PM 41.3189 -93.8294 261° West 470 541 38,000  Level Minneapolis Center
01:36PM 41.2983 -94.0022 261° West 474 545 38,000  Level Minneapolis Center
01:37PM 41.2775 -94.1725 261° West 474 545 38,000  Level Minneapolis Center
01:38PM 41.2539 -94.3539 260° West 476 548 38,000  Level Minneapolis Center
01:39PM 41.2319 -94.5269 260° West 476 548 38,000  Level Minneapolis Center
01:40PM 41.2097 -94.7014 260° West 478 550 38,000  Level Minneapolis Center
01:41PM 41.1864 -94.8747 260° West 478 550 38,000  Level Minneapolis Center
01:42PM 41.1583 -95.0831 260° West 477 549 38,000  Level Minneapolis Center
01:43PM 41.1342 -95.2575 260° West 478 550 38,000  Level Minneapolis Center
01:44PM 41.1097 -95.4314 259° West 478 550 38,000  Level Minneapolis Center
01:45PM 41.0856 -95.6058 260° West 478 550 38,000  Level Minneapolis Center
01:46PM 41.0606 -95.7789 259° West 475 547 38,000  Level Minneapolis Center
01:47PM 41.0358 -95.9547 259° West 478 550 38,000  Level Minneapolis Center
01:48PM 41.0119 -96.1308 260° West 480 552 38,000  Level Minneapolis Center
01:49PM 40.9814 -96.3400 259° West 480 552 38,000  Level Minneapolis Center
01:51PM 40.9569 -96.5136 259° West 479 551 38,000  Level Minneapolis Center
01:52PM 40.9303 -96.6842 258° West 475 547 38,000  Level Minneapolis Center
01:53PM 40.9114 -96.8578 262° West 476 548 38,000  Level Minneapolis Center
01:54PM 40.8947 -97.0297 263° West 473 544 38,000  Level Minneapolis Center
01:55PM 40.8778 -97.2028 263° West 473 544 38,000  Level Minneapolis Center
01:56PM 40.8583 -97.4050 263° West 470 541 38,000  Level Minneapolis Center
01:57PM 40.8411 -97.5761 262° West 469 540 38,000  Level Minneapolis Center
01:58PM 40.8236 -97.7489 262° West 473 544 38,000  Level Minneapolis Center
01:59PM 40.8056 -97.9225 262° West 475 547 38,000  Level Minneapolis Center
02:00PM 40.7883 -98.0956 263° West 475 547 38,000  Level Minneapolis Center
02:01PM 40.7692 -98.2697 262° West 476 548 38,000  Level Minneapolis Center
02:02PM 40.7497 -98.4444 262° West 478 550 38,000  Level Minneapolis Center
02:03PM 40.7272 -98.6564 262° West 481 554 38,000 240 Level Minneapolis Center
02:04PM 40.7025 -98.8650 261° West 477 549 38,600 480 Climbing Minneapolis Center
02:05PM 40.6836 -99.0347 262° West 468 539 39,200 480 Climbing Minneapolis Center
02:06PM 40.6653 -99.2022 262° West 461 531 39,700 360 Climbing Minneapolis Center
02:07PM 40.6458 -99.3683 261° West 459 528 40,000 120 Climbing Minneapolis Center
02:08PM 40.6267 -99.5375 262° West 462 532 40,000  Level Minneapolis Center
02:09PM 40.6053 -99.7086 261° West 470 541 40,000  Level Minneapolis Center
02:11PM 40.5778 -99.9369 261° West 474 545 40,000  Level Denver Center
02:12PM 40.5536 -100.1306 261° West 479 551 40,000  Level Denver Center
02:13PM 40.5336 -100.2969 261° West 480 552 40,000  Level Denver Center
02:14PM 40.5125 -100.4597 260° West 471 542 40,000  Level Denver Center
02:15PM 40.4881 -100.6497 260° West 469 540 40,000  Level Denver Center
02:16PM 40.4672 -100.8142 261° West 473 544 40,000  Level Denver Center
02:17PM 40.4417 -101.0064 260° West 474 545 40,000  Level Denver Center
02:18PM 40.4197 -101.1714 260° West 477 549 40,000  Level Denver Center
02:19PM 40.3936 -101.3631 260° West 477 549 40,000  Level Denver Center
02:20PM 40.3700 -101.5278 259° West 479 551 40,000  Level Denver Center
02:21PM 40.3433 -101.7194 260° West 478 550 40,000  Level Denver Center
02:22PM 40.3197 -101.8822 259° West 476 548 40,000  Level Denver Center
02:23PM 40.2969 -102.0447 260° West 473 544 40,000  Level Denver Center
02:24PM 40.2681 -102.2311 259° West 470 541 40,000  Level Denver Center
02:25PM 40.2469 -102.3936 260° West 471 542 40,000  Level Denver Center
02:26PM 40.2183 -102.5811 259° West 471 542 40,000  Level Denver Center
02:27PM 40.1936 -102.7425 259° West 473 544 40,000  Level Denver Center
02:28PM 40.1661 -102.9322 259° West 475 547 40,000  Level Denver Center
02:29PM 40.1414 -103.0936 259° West 473 544 40,000  Level Denver Center
02:30PM 40.1089 -103.3106 259° West 477 549 40,000  Level Denver Center
02:32PM 40.0831 -103.4722 258° West 476 548 40,000  Level Denver Center
02:33PM 40.0522 -103.6603 258° West 475 547 40,000  Level Denver Center
02:34PM 40.0231 -103.8489 259° West 485 558 40,000  Level Denver Center
02:35PM 39.9953 -104.0186 258° West 481 554 40,000  Level Denver Center
02:36PM 39.9669 -104.1878 258° West 478 550 40,000  Level Denver Center
02:37PM 39.9383 -104.3708 259° West 480 552 40,000  Level Denver Center
02:38PM 39.9147 -104.5125 258° West 477 549 40,000  Level Denver Center
02:39PM 39.8767 -104.7206 257° West 478 550 40,000  Level Denver Center
02:40PM 39.8431 -104.9042 257° West 492 566 40,000  Level Denver Center
02:41PM 39.8108 -105.0661 256° West 468 539 40,000  Level Denver Center
02:42PM 39.7761 -105.2450 256° West 475 547 40,000  Level Denver Center
02:43PM 39.7422 -105.4106 255° West 477 549 40,000  Level Denver Center
02:44PM 39.7103 -105.5781 256° West 478 550 40,000  Level Denver Center
02:45PM 39.6650 -105.7961 255° West 483 556 40,000  Level Denver Center
02:46PM 39.6361 -105.9456 256° West 471 542 40,000  Level Denver Center
02:47PM 39.6028 -106.1103 255° West 481 554 40,000  Level Denver Center
02:48PM 39.5686 -106.2778 255° West 481 554 40,000  Level Denver Center
02:49PM 39.5269 -106.4794 255° West 483 556 40,000  Level Denver Center
02:50PM 39.4908 -106.6514 255° West 484 557 40,000  Level Denver Center
02:51PM 39.4558 -106.8125 254° West 486 559 40,000  Level Denver Center
02:52PM 39.4156 -107.0014 255° West 488 562 40,000  Level Denver Center
02:53PM 39.3889 -107.1619 258° West 481 554 40,000  Level Denver Center
02:54PM 39.3517 -107.3500 256° West 482 555 40,000  Level Denver Center
02:56PM 39.3192 -107.5108 255° West 483 556 40,000  Level Denver Center
02:57PM 39.2767 -107.7244 256° West 482 555 40,000  Level Denver Center
02:58PM 39.2453 -107.8844 256° West 478 550 40,000  Level Denver Center
02:59PM 39.2081 -108.0686 255° West 476 548 40,000  Level Denver Center
03:00PM 39.1764 -108.2269 256° West 473 544 40,000  Level Denver Center
03:01PM 39.1367 -108.4125 255° West 488 562 40,000  Level Denver Center
03:02PM 39.1058 -108.5719 256° West 487 560 40,000  Level Denver Center
03:03PM 39.0672 -108.7533 255° West 468 539 40,000  Level Denver Center
03:04PM 39.0453 -108.8850 258° West 470 541 40,000  Level Denver Center
03:05PM 39.0142 -109.0972 259° West 472 543 40,000  Level Denver Center
03:06PM 38.9900 -109.2575 259° West 474 545 40,000  Level Denver Center
03:07PM 38.9658 -109.4167 259° West 472 543 40,000  Level Denver Center
03:08PM 38.9386 -109.6017 259° West 471 542 40,000  Level Denver Center
03:09PM 38.9153 -109.7603 259° West 471 542 40,000  Level Denver Center
03:10PM 38.8969 -109.9436 263° West 463 533 40,000  Level Denver Center
03:11PM 38.8839 -110.1014 264° West 465 535 40,000  Level Denver Center
03:12PM 38.8689 -110.2875 264° West 469 540 40,000  Level Denver Center
03:13PM 38.8567 -110.4456 264° West 467 537 40,000 -240 Level Denver Center
03:14PM 38.8408 -110.6281 264° West 463 533 39,600 -1,080 Descending Denver Center
03:16PM 38.8239 -110.8150 263° West 469 540 37,600 -1,980 Descending Salt Lake Center
03:17PM 38.8094 -110.9833 264° West 473 544 35,200 -1,800 Descending Salt Lake Center
03:18PM 38.7928 -111.1769 264° West 461 531 34,000 -600 Descending Salt Lake Center
03:19PM 38.7769 -111.3389 263° West 459 528 34,000  Level Salt Lake Center
03:20PM 38.7617 -111.5069 263° West 473 544 34,000  Level Salt Lake Center
03:21PM 38.7464 -111.6769 263° West 479 551 34,000  Level Salt Lake Center
03:22PM 38.7303 -111.8469 263° West 483 556 34,000  Level Salt Lake Center
03:23PM 38.7128 -112.0139 262° West 478 550 34,000  Level Salt Lake Center
03:24PM 38.6931 -112.2178 263° West 482 555 34,000  Level Salt Lake Center
03:25PM 38.6764 -112.3869 263° West 482 555 34,000  Level Salt Lake Center
03:26PM 38.6589 -112.5550 262° West 480 552 34,000  Level Salt Lake Center
03:27PM 38.6414 -112.7225 262° West 479 551 34,000  Level Salt Lake Center
03:28PM 38.6231 -112.8897 262° West 479 551 34,000  Level Salt Lake Center
03:29PM 38.6022 -113.0917 263° West 479 551 34,000  Level Salt Lake Center
03:30PM 38.5833 -113.2586 262° West 480 552 34,000  Level Salt Lake Center
03:31PM 38.5653 -113.4275 262° West 482 555 34,000  Level Salt Lake Center
03:32PM 38.5467 -113.5956 262° West 481 554 34,000  Level Salt Lake Center
03:33PM 38.5283 -113.7636 262° West 480 552 34,000  Level Salt Lake Center
03:34PM 38.5083 -113.9319 261° West 482 555 34,000  Level Salt Lake Center
03:35PM 38.4847 -114.1367 262° West 488 562 34,000  Level Salt Lake Center
03:36PM 38.4650 -114.3036 261° West 482 555 34,000  Level Salt Lake Center
03:37PM 38.4456 -114.4717 262° West 480 552 34,000  Level Salt Lake Center
03:38PM 38.4253 -114.6397 261° West 482 555 34,000  Level Salt Lake Center
03:39PM 38.4042 -114.8069 261° West 480 552 34,000  Level Salt Lake Center
03:40PM 38.3800 -115.0067 261° West 477 549 34,000  Level Salt Lake Center
03:41PM 38.3600 -115.1725 261° West 475 547 34,000  Level Salt Lake Center
03:42PM 38.3386 -115.3381 261° West 475 547 34,000  Level Salt Lake Center
03:44PM 38.3144 -115.5219 261° West 475 547 34,000  Level Salt Lake Center
03:45PM 38.2936 -115.6864 261° West 471 542 34,000  Level Salt Lake Center
03:46PM 38.2719 -115.8514 261° West 472 543 34,000  Level Salt Lake Center
03:47PM 38.2503 -116.0164 261° West 473 544 34,000  Level Salt Lake Center
03:48PM 38.2289 -116.1792 261° West 470 541 34,000  Level Salt Lake Center
03:49PM 38.2064 -116.3444 260° West 474 545 34,000  Level Salt Lake Center
03:50PM 38.1842 -116.5078 260° West 470 541 34,000  Level Salt Lake Center
03:51PM 38.1569 -116.7039 260° West 470 541 34,000  Level Salt Lake Center
03:52PM 38.1339 -116.8686 260° West 472 543 34,000  Level Salt Lake Center
03:53PM 38.1108 -117.0322 260° West 470 541 34,000  Level Salt Lake Center
03:54PM 38.0839 -117.2058 259° West 484 557 34,000  Level Salt Lake Center
03:55PM 38.0608 -117.3778 260° West 481 554 34,000  Level Salt Lake Center
03:56PM 38.0378 -117.5414 260° West 470 541 34,000  Level Salt Lake Center
03:57PM 38.0144 -117.7044 260° West 470 541 34,000  Level Salt Lake Center
03:58PM 37.9936 -117.8681 261° West 471 542 34,000  Level Salt Lake Center
04:00PM 37.9649 -118.1033 261° West  Level FlightAware Approximate
04:00PM 37.9575 -118.2325 261° West 473 544 34,000  Level Salt Lake Center
04:01PM 37.9397 -118.3958 262° West 471 542 34,000  Level Salt Lake Center
04:02PM 37.9156 -118.5939 261° West 472 543 34,000  Level Oakland Center
04:03PM 37.8958 -118.7594 261° West 476 548 34,000 -180 Level Oakland Center
04:04PM 37.8781 -118.9253 262° West 475 547 33,700 -1,020 Descending Oakland Center
04:05PM 37.8586 -119.1044 262° West 476 548 32,000 -1,440 Descending Oakland Center
04:06PM 37.8389 -119.2703 261° West 476 548 30,800 -1,020 Descending Oakland Center
04:08PM 37.8192 -119.4378 262° West 480 552 30,000 -420 Descending Oakland Center
04:09PM 37.7992 -119.6056 261° West 482 555 30,000  Level Oakland Center
04:10PM 37.7747 -119.8097 261° West 487 560 30,000  Level Oakland Center
04:11PM 37.7536 -119.9814 261° West 491 565 30,000  Level Oakland Center
04:12PM 37.7322 -120.1522 261° West 491 565 30,000 -600 Level Oakland Center
04:13PM 37.7106 -120.3222 261° West 489 563 28,800 -1,740 Descending Oakland Center
04:14PM 37.6900 -120.4894 261° West 483 556 26,500 -2,160 Descending Oakland Center
04:15PM 37.6689 -120.6503 261° West 466 536 24,400 -2,280 Descending Oakland Center
04:15PM 37.6500 -120.7667 258° West 467 537 22,800 -2,400 Descending Northern Cal TRACON
04:16PM 37.6333 -120.9167 262° West 472 543 20,600 -2,820 Descending Northern Cal TRACON
04:17PM 37.6167 -121.0833 263° West 416 479 17,000 -2,820 Descending Northern Cal TRACON
04:18PM 37.6000 -121.2167 261° West 381 438 14,700 -2,160 Descending Northern Cal TRACON
04:19PM 37.5833 -121.3333 260° West 382 440 12,900 -1,500 Descending Northern Cal TRACON
04:20PM 37.5667 -121.4667 261° West 378 435 11,900 -960 Descending Northern Cal TRACON
04:21PM 37.5500 -121.6000 261° West 374 430 11,000 -960 Descending Northern Cal TRACON
04:22PM 37.5333 -121.7167 260° West 338 389 10,000 -1,200 Descending Northern Cal TRACON
04:23PM 37.5000 -121.8167 247° West 297 342 8,700 -960 Descending Northern Cal TRACON
04:24PM 37.4833 -121.9167 258° West 296 341 8,100 -1,080 Descending Northern Cal TRACON
04:25PM 37.5000 -122.0000 284° West 269 310 6,600 -1,500 Descending Northern Cal TRACON
04:26PM 37.5333 -122.0833 297° West 230 265 5,100 -1,500 Descending Northern Cal TRACON
04:27PM 37.5500 -122.1500 288° West 215 247 3,600 -1,320 Descending Northern Cal TRACON
04:28PM 37.5667 -122.2167 288° West 192 221 2,500 -1,020 Descending Northern Cal TRACON
04:29PM 37.5833 -122.2833 288° West 183 211 1,600 -960 Descending Northern Cal TRACON
04:30PM 37.6000 -122.3167 302° West 131 151 600 -1,020 Descending Northern Cal TRACON
04:33PM 37.6167 -122.3667 322° Northwest  Level FlightAware Approximate
04:40PM 37.6191 -122.3752 322° Northwest  Level Estimated